Terminal Aerodrome Forecast
Issued by NWS

Home | Current Version | Previous Version | Text Only | Print | Product List | Glossary On
Versions: 1 2 3 4 5 6 7 8 9 10 11 12 13 14 15 16 17
000
FTUS43 KIND 300900 AAA
TAFBMG
TAF AMD
KBMG 300933Z 3010/0106 25006KT P6SM SCT015 BKN040
      TEMPO 3011/3013 3SM SHRA OVC015
     FM301600 25008KT P6SM BKN035
      AMD LTD TO CLD VIS AND WIND TIL 301300=

USA.gov is the U.S. government's official web portal to all federal, state and local government web resources and services.